sensor_id;sensor_type;location;lat;lon;timestamp;pressure;altitude;pressure_sealevel;temperature;humidity
47080;BME280;33067;49.296;14.470;2022-12-18T00:01:23;98333.30;;;-2.82;37.38
47080;BME280;33067;49.296;14.470;2022-12-18T00:03:46;98334.11;;;-2.77;36.19
47080;BME280;33067;49.296;14.470;2022-12-18T00:06:12;98335.24;;;-2.57;36.19
47080;BME280;33067;49.296;14.470;2022-12-18T00:08:37;98334.29;;;-2.81;36.31
47080;BME280;33067;49.296;14.470;2022-12-18T00:11:04;98338.09;;;-2.80;36.37
47080;BME280;33067;49.296;14.470;2022-12-18T00:13:27;98340.65;;;-2.71;36.90
47080;BME280;33067;49.296;14.470;2022-12-18T00:15:53;98337.23;;;-2.69;37.38
47080;BME280;33067;49.296;14.470;2022-12-18T00:18:19;98341.31;;;-2.61;37.34
47080;BME280;33067;49.296;14.470;2022-12-18T00:20:45;98345.87;;;-2.57;37.33
47080;BME280;33067;49.296;14.470;2022-12-18T00:23:09;98348.05;;;-2.69;37.02
47080;BME280;33067;49.296;14.470;2022-12-18T00:25:36;98353.01;;;-2.54;37.17
47080;BME280;33067;49.296;14.470;2022-12-18T00:28:01;98353.54;;;-2.99;37.55
47080;BME280;33067;49.296;14.470;2022-12-18T00:30:26;98353.33;;;-3.58;38.91
47080;BME280;33067;49.296;14.470;2022-12-18T00:32:52;98351.57;;;-3.84;39.57
47080;BME280;33067;49.296;14.470;2022-12-18T00:35:17;98353.06;;;-2.93;38.85
47080;BME280;33067;49.296;14.470;2022-12-18T00:37:42;98355.85;;;-3.73;40.32
47080;BME280;33067;49.296;14.470;2022-12-18T00:40:09;98362.84;;;-3.02;38.77
47080;BME280;33067;49.296;14.470;2022-12-18T00:42:34;98368.07;;;-2.97;38.40
47080;BME280;33067;49.296;14.470;2022-12-18T00:44:59;98370.38;;;-2.85;38.25
47080;BME280;33067;49.296;14.470;2022-12-18T00:47:25;98367.42;;;-2.71;37.80
47080;BME280;33067;49.296;14.470;2022-12-18T00:49:51;98368.47;;;-2.79;38.24
47080;BME280;33067;49.296;14.470;2022-12-18T00:52:17;98371.76;;;-2.64;38.14
47080;BME280;33067;49.296;14.470;2022-12-18T00:54:42;98374.83;;;-2.87;38.06
47080;BME280;33067;49.296;14.470;2022-12-18T00:57:07;98374.62;;;-2.42;37.70
47080;BME280;33067;49.296;14.470;2022-12-18T00:59:33;98380.48;;;-3.12;37.99
47080;BME280;33067;49.296;14.470;2022-12-18T01:01:59;98377.13;;;-3.15;38.63
47080;BME280;33067;49.296;14.470;2022-12-18T01:04:24;98380.48;;;-2.96;38.31
47080;BME280;33067;49.296;14.470;2022-12-18T01:06:50;98383.99;;;-2.59;38.30
47080;BME280;33067;49.296;14.470;2022-12-18T01:09:15;98387.71;;;-2.99;38.32
47080;BME280;33067;49.296;14.470;2022-12-18T01:11:40;98397.47;;;-3.74;39.55
47080;BME280;33067;49.296;14.470;2022-12-18T01:14:05;98405.38;;;-3.04;39.09
47080;BME280;33067;49.296;14.470;2022-12-18T01:16:31;98409.10;;;-2.80;38.37
47080;BME280;33067;49.296;14.470;2022-12-18T01:18:56;98405.85;;;-2.90;37.57
47080;BME280;33067;49.296;14.470;2022-12-18T01:21:22;98403.10;;;-2.64;37.69
47080;BME280;33067;49.296;14.470;2022-12-18T01:23:51;98401.38;;;-3.09;37.33
47080;BME280;33067;49.296;14.470;2022-12-18T01:26:15;98404.97;;;-3.12;37.56
47080;BME280;33067;49.296;14.470;2022-12-18T01:28:38;98411.63;;;-2.90;37.52
47080;BME280;33067;49.296;14.470;2022-12-18T01:31:12;98413.40;;;-3.06;37.69
47080;BME280;33067;49.296;14.470;2022-12-18T01:33:29;98410.98;;;-3.18;37.61
47080;BME280;33067;49.296;14.470;2022-12-18T01:35:56;98413.82;;;-2.87;36.76
47080;BME280;33067;49.296;14.470;2022-12-18T01:38:19;98421.52;;;-2.83;36.25
47080;BME280;33067;49.296;14.470;2022-12-18T01:40:45;98432.47;;;-2.95;36.28
47080;BME280;33067;49.296;14.470;2022-12-18T01:43:10;98432.88;;;-2.95;35.95
47080;BME280;33067;49.296;14.470;2022-12-18T01:45:36;98429.26;;;-2.92;35.66
47080;BME280;33067;49.296;14.470;2022-12-18T01:48:04;98429.18;;;-3.19;35.66
47080;BME280;33067;49.296;14.470;2022-12-18T01:50:33;98431.93;;;-3.11;35.49
47080;BME280;33067;49.296;14.470;2022-12-18T01:52:55;98430.03;;;-3.02;35.74
47080;BME280;33067;49.296;14.470;2022-12-18T01:55:22;98422.25;;;-3.11;35.62
47080;BME280;33067;49.296;14.470;2022-12-18T01:57:44;98426.93;;;-3.07;35.30
47080;BME280;33067;49.296;14.470;2022-12-18T02:00:14;98439.74;;;-3.16;35.42
47080;BME280;33067;49.296;14.470;2022-12-18T02:02:35;98443.59;;;-3.43;35.69
47080;BME280;33067;49.296;14.470;2022-12-18T02:05:00;98442.20;;;-3.20;35.87
47080;BME280;33067;49.296;14.470;2022-12-18T02:07:32;98439.78;;;-3.04;35.17
47080;BME280;33067;49.296;14.470;2022-12-18T02:09:58;98438.39;;;-3.21;35.92
47080;BME280;33067;49.296;14.470;2022-12-18T02:12:19;98435.55;;;-3.38;35.65
47080;BME280;33067;49.296;14.470;2022-12-18T02:14:45;98434.46;;;-3.50;35.78
47080;BME280;33067;49.296;14.470;2022-12-18T02:17:13;98434.67;;;-3.33;36.41
47080;BME280;33067;49.296;14.470;2022-12-18T02:19:40;98441.11;;;-3.18;36.77
47080;BME280;33067;49.296;14.470;2022-12-18T02:22:06;98444.32;;;-3.04;37.04
47080;BME280;33067;49.296;14.470;2022-12-18T02:24:32;98443.11;;;-3.23;36.82
47080;BME280;33067;49.296;14.470;2022-12-18T02:26:51;98443.91;;;-3.08;36.97
47080;BME280;33067;49.296;14.470;2022-12-18T02:29:18;98438.25;;;-3.30;37.10
47080;BME280;33067;49.296;14.470;2022-12-18T02:31:45;98441.64;;;-3.55;37.70
47080;BME280;33067;49.296;14.470;2022-12-18T02:34:07;98446.24;;;-2.81;36.89
47080;BME280;33067;49.296;14.470;2022-12-18T02:36:32;98445.13;;;-3.14;37.46
47080;BME280;33067;49.296;14.470;2022-12-18T02:38:58;98448.22;;;-3.61;37.88
47080;BME280;33067;49.296;14.470;2022-12-18T02:41:22;98452.58;;;-3.35;37.80
47080;BME280;33067;49.296;14.470;2022-12-18T02:43:48;98461.19;;;-3.40;37.50
47080;BME280;33067;49.296;14.470;2022-12-18T02:46:24;98459.33;;;-3.29;37.60
47080;BME280;33067;49.296;14.470;2022-12-18T02:48:38;98456.57;;;-3.55;37.85
47080;BME280;33067;49.296;14.470;2022-12-18T02:51:10;98453.94;;;-3.53;37.85
47080;BME280;33067;49.296;14.470;2022-12-18T02:53:35;98450.70;;;-3.60;37.80
47080;BME280;33067;49.296;14.470;2022-12-18T02:56:01;98453.90;;;-3.43;37.91
47080;BME280;33067;49.296;14.470;2022-12-18T02:58:23;98452.25;;;-3.35;37.86
47080;BME280;33067;49.296;14.470;2022-12-18T03:00:51;98458.32;;;-3.37;37.44
47080;BME280;33067;49.296;14.470;2022-12-18T03:03:15;98465.47;;;-3.84;38.21
47080;BME280;33067;49.296;14.470;2022-12-18T03:05:39;98467.09;;;-4.38;38.49
47080;BME280;33067;49.296;14.470;2022-12-18T03:08:05;98473.41;;;-4.40;39.13
47080;BME280;33067;49.296;14.470;2022-12-18T03:13:03;98469.92;;;-4.22;39.10
47080;BME280;33067;49.296;14.470;2022-12-18T03:15:29;98470.51;;;-4.33;39.67
47080;BME280;33067;49.296;14.470;2022-12-18T03:17:55;98467.06;;;-4.21;39.60
47080;BME280;33067;49.296;14.470;2022-12-18T03:20:20;98467.84;;;-3.92;39.21
47080;BME280;33067;49.296;14.470;2022-12-18T03:22:43;98468.32;;;-4.21;39.14
47080;BME280;33067;49.296;14.470;2022-12-18T03:25:11;98471.03;;;-4.35;39.68
47080;BME280;33067;49.296;14.470;2022-12-18T03:27:33;98473.70;;;-4.21;39.67
47080;BME280;33067;49.296;14.470;2022-12-18T03:30:02;98476.87;;;-3.92;39.41
47080;BME280;33067;49.296;14.470;2022-12-18T03:32:27;98480.04;;;-3.97;39.40
47080;BME280;33067;49.296;14.470;2022-12-18T03:34:50;98477.85;;;-3.87;39.55
47080;BME280;33067;49.296;14.470;2022-12-18T03:37:14;98479.71;;;-3.60;38.81
47080;BME280;33067;49.296;14.470;2022-12-18T03:39:39;98481.06;;;-3.61;38.61
47080;BME280;33067;49.296;14.470;2022-12-18T03:42:08;98479.80;;;-3.88;39.23
47080;BME280;33067;49.296;14.470;2022-12-18T03:44:36;98476.74;;;-4.14;39.39
47080;BME280;33067;49.296;14.470;2022-12-18T03:47:00;98474.68;;;-3.51;38.68
47080;BME280;33067;49.296;14.470;2022-12-18T03:49:25;98474.22;;;-3.49;38.92
47080;BME280;33067;49.296;14.470;2022-12-18T03:51:51;98472.48;;;-3.55;37.91
47080;BME280;33067;49.296;14.470;2022-12-18T03:54:13;98472.23;;;-3.27;37.65
47080;BME280;33067;49.296;14.470;2022-12-18T03:56:40;98475.22;;;-3.50;38.00
47080;BME280;33067;49.296;14.470;2022-12-18T03:59:03;98475.22;;;-3.65;38.26
47080;BME280;33067;49.296;14.470;2022-12-18T04:01:33;98478.18;;;-3.72;38.64
47080;BME280;33067;49.296;14.470;2022-12-18T04:03:53;98478.83;;;-3.75;38.51
47080;BME280;33067;49.296;14.470;2022-12-18T04:06:19;98482.01;;;-4.26;38.57
47080;BME280;33067;49.296;14.470;2022-12-18T04:08:45;98490.20;;;-4.09;38.94
47080;BME280;33067;49.296;14.470;2022-12-18T04:11:10;98494.54;;;-4.20;39.31
47080;BME280;33067;49.296;14.470;2022-12-18T04:13:37;98496.81;;;-3.76;39.10
47080;BME280;33067;49.296;14.470;2022-12-18T04:16:01;98497.29;;;-3.75;39.09
47080;BME280;33067;49.296;14.470;2022-12-18T04:18:27;98498.24;;;-3.77;39.44
47080;BME280;33067;49.296;14.470;2022-12-18T04:20:52;98496.78;;;-3.68;39.36
47080;BME280;33067;49.296;14.470;2022-12-18T04:23:18;98494.25;;;-3.90;39.96
47080;BME280;33067;49.296;14.470;2022-12-18T04:25:43;98496.42;;;-3.93;39.75
47080;BME280;33067;49.296;14.470;2022-12-18T04:28:08;98499.32;;;-3.92;40.19
47080;BME280;33067;49.296;14.470;2022-12-18T04:30:33;98495.65;;;-3.81;39.74
47080;BME280;33067;49.296;14.470;2022-12-18T04:32:59;98494.68;;;-3.92;39.89
47080;BME280;33067;49.296;14.470;2022-12-18T04:35:24;98495.68;;;-3.48;39.66
47080;BME280;33067;49.296;14.470;2022-12-18T04:37:49;98494.20;;;-3.34;39.08
47080;BME280;33067;49.296;14.470;2022-12-18T04:40:15;98494.99;;;-3.74;39.44
47080;BME280;33067;49.296;14.470;2022-12-18T04:42:41;98498.91;;;-3.53;39.19
47080;BME280;33067;49.296;14.470;2022-12-18T04:45:07;98501.76;;;-3.24;38.85
47080;BME280;33067;49.296;14.470;2022-12-18T04:47:32;98502.60;;;-3.75;38.81
47080;BME280;33067;49.296;14.470;2022-12-18T04:49:57;98503.09;;;-3.66;38.85
47080;BME280;33067;49.296;14.470;2022-12-18T04:52:23;98507.86;;;-3.70;38.74
47080;BME280;33067;49.296;14.470;2022-12-18T04:54:48;98515.09;;;-3.66;38.79
47080;BME280;33067;49.296;14.470;2022-12-18T04:57:14;98518.25;;;-3.33;38.81
47080;BME280;33067;49.296;14.470;2022-12-18T04:59:40;98521.30;;;-3.22;38.60
47080;BME280;33067;49.296;14.470;2022-12-18T05:02:05;98529.62;;;-3.53;39.05
47080;BME280;33067;49.296;14.470;2022-12-18T05:04:31;98536.21;;;-3.54;38.92
47080;BME280;33067;49.296;14.470;2022-12-18T05:06:57;98542.34;;;-3.39;39.05
47080;BME280;33067;49.296;14.470;2022-12-18T05:09:23;98540.85;;;-3.34;38.79
47080;BME280;33067;49.296;14.470;2022-12-18T05:11:47;98545.74;;;-3.66;39.78
47080;BME280;33067;49.296;14.470;2022-12-18T05:14:13;98539.75;;;-3.41;39.29
47080;BME280;33067;49.296;14.470;2022-12-18T05:16:38;98540.34;;;-3.91;39.24
47080;BME280;33067;49.296;14.470;2022-12-18T05:19:03;98541.48;;;-3.40;37.60
47080;BME280;33067;49.296;14.470;2022-12-18T05:21:28;98549.45;;;-4.04;38.40
47080;BME280;33067;49.296;14.470;2022-12-18T05:23:54;98549.35;;;-4.03;37.97
47080;BME280;33067;49.296;14.470;2022-12-18T05:26:20;98551.19;;;-3.85;37.88
47080;BME280;33067;49.296;14.470;2022-12-18T05:28:46;98559.97;;;-3.94;38.37
47080;BME280;33067;49.296;14.470;2022-12-18T05:31:12;98559.92;;;-3.89;38.23
47080;BME280;33067;49.296;14.470;2022-12-18T05:33:37;98558.51;;;-3.88;38.26
47080;BME280;33067;49.296;14.470;2022-12-18T05:36:05;98556.03;;;-4.50;38.23
47080;BME280;33067;49.296;14.470;2022-12-18T05:38:30;98554.33;;;-4.33;38.48
47080;BME280;33067;49.296;14.470;2022-12-18T05:40:53;98553.92;;;-4.12;38.11
47080;BME280;33067;49.296;14.470;2022-12-18T05:43:20;98557.40;;;-4.32;38.14
47080;BME280;33067;49.296;14.470;2022-12-18T05:45:44;98564.73;;;-4.09;38.73
47080;BME280;33067;49.296;14.470;2022-12-18T05:48:10;98567.26;;;-4.22;38.59
47080;BME280;33067;49.296;14.470;2022-12-18T05:50:35;98565.95;;;-4.21;38.72
47080;BME280;33067;49.296;14.470;2022-12-18T05:53:00;98569.44;;;-4.12;38.63
47080;BME280;33067;49.296;14.470;2022-12-18T05:55:25;98573.53;;;-4.31;39.15
47080;BME280;33067;49.296;14.470;2022-12-18T05:57:51;98575.25;;;-4.18;38.98
47080;BME280;33067;49.296;14.470;2022-12-18T06:00:17;98573.19;;;-4.03;38.72
47080;BME280;33067;49.296;14.470;2022-12-18T06:02:46;98574.72;;;-3.96;38.69
47080;BME280;33067;49.296;14.470;2022-12-18T06:05:08;98578.76;;;-3.82;38.41
47080;BME280;33067;49.296;14.470;2022-12-18T06:07:33;98577.31;;;-3.93;38.44
47080;BME280;33067;49.296;14.470;2022-12-18T06:09:59;98582.39;;;-4.52;39.11
47080;BME280;33067;49.296;14.470;2022-12-18T06:12:24;98584.78;;;-4.85;39.87
47080;BME280;33067;49.296;14.470;2022-12-18T06:14:49;98591.96;;;-4.56;39.82
47080;BME280;33067;49.296;14.470;2022-12-18T06:17:14;98599.01;;;-4.23;39.27
47080;BME280;33067;49.296;14.470;2022-12-18T06:19:39;98596.80;;;-4.38;39.17
47080;BME280;33067;49.296;14.470;2022-12-18T06:22:05;98597.70;;;-3.89;38.66
47080;BME280;33067;49.296;14.470;2022-12-18T06:24:31;98599.63;;;-4.11;38.64
47080;BME280;33067;49.296;14.470;2022-12-18T06:26:56;98600.43;;;-4.44;38.70
47080;BME280;33067;49.296;14.470;2022-12-18T06:29:22;98609.24;;;-4.31;38.29
47080;BME280;33067;49.296;14.470;2022-12-18T06:31:47;98614.61;;;-4.45;38.09
47080;BME280;33067;49.296;14.470;2022-12-18T06:34:12;98614.93;;;-4.74;38.48
47080;BME280;33067;49.296;14.470;2022-12-18T06:36:38;98615.42;;;-4.76;38.65
47080;BME280;33067;49.296;14.470;2022-12-18T06:39:03;98619.31;;;-4.44;37.65
47080;BME280;33067;49.296;14.470;2022-12-18T06:41:29;98626.12;;;-4.91;38.36
47080;BME280;33067;49.296;14.470;2022-12-18T06:43:54;98623.78;;;-4.61;38.49
47080;BME280;33067;49.296;14.470;2022-12-18T06:46:20;98623.82;;;-4.87;38.43
47080;BME280;33067;49.296;14.470;2022-12-18T06:48:48;98624.21;;;-5.02;38.50
47080;BME280;33067;49.296;14.470;2022-12-18T06:51:10;98630.84;;;-4.75;38.43
47080;BME280;33067;49.296;14.470;2022-12-18T06:53:36;98634.51;;;-4.28;38.42
47080;BME280;33067;49.296;14.470;2022-12-18T06:56:03;98631.23;;;-4.48;38.05
47080;BME280;33067;49.296;14.470;2022-12-18T06:58:27;98635.20;;;-4.79;38.33
47080;BME280;33067;49.296;14.470;2022-12-18T07:00:53;98632.23;;;-4.91;38.01
47080;BME280;33067;49.296;14.470;2022-12-18T07:03:18;98638.70;;;-4.38;37.77
47080;BME280;33067;49.296;14.470;2022-12-18T07:05:44;98639.62;;;-4.38;37.98
47080;BME280;33067;49.296;14.470;2022-12-18T07:08:09;98642.79;;;-3.98;37.32
47080;BME280;33067;49.296;14.470;2022-12-18T07:10:41;98639.85;;;-4.33;37.57
47080;BME280;33067;49.296;14.470;2022-12-18T07:13:00;98645.55;;;-4.20;37.14
47080;BME280;33067;49.296;14.470;2022-12-18T07:15:25;98648.14;;;-4.40;37.25
47080;BME280;33067;49.296;14.470;2022-12-18T07:17:50;98648.26;;;-4.52;38.05
47080;BME280;33067;49.296;14.470;2022-12-18T07:20:16;98654.25;;;-4.30;37.62
47080;BME280;33067;49.296;14.470;2022-12-18T07:22:41;98659.39;;;-4.51;37.44
47080;BME280;33067;49.296;14.470;2022-12-18T07:25:07;98662.55;;;-5.06;38.70
47080;BME280;33067;49.296;14.470;2022-12-18T07:27:33;98662.83;;;-4.49;38.08
47080;BME280;33067;49.296;14.470;2022-12-18T07:29:58;98665.84;;;-5.10;38.26
47080;BME280;33067;49.296;14.470;2022-12-18T07:32:24;98671.64;;;-5.14;38.56
47080;BME280;33067;49.296;14.470;2022-12-18T07:34:50;98669.73;;;-5.23;39.16
47080;BME280;33067;49.296;14.470;2022-12-18T07:37:16;98669.65;;;-5.04;39.01
47080;BME280;33067;49.296;14.470;2022-12-18T07:39:41;98670.83;;;-5.03;38.33
47080;BME280;33067;49.296;14.470;2022-12-18T07:42:06;98681.70;;;-4.85;38.22
47080;BME280;33067;49.296;14.470;2022-12-18T07:44:31;98686.52;;;-4.73;38.33
47080;BME280;33067;49.296;14.470;2022-12-18T07:46:56;98688.53;;;-4.49;37.78
47080;BME280;33067;49.296;14.470;2022-12-18T07:49:22;98695.98;;;-4.68;37.30
47080;BME280;33067;49.296;14.470;2022-12-18T07:51:47;98700.60;;;-5.07;37.72
47080;BME280;33067;49.296;14.470;2022-12-18T07:54:12;98704.82;;;-5.10;38.25
47080;BME280;33067;49.296;14.470;2022-12-18T07:56:38;98704.14;;;-4.89;38.12
47080;BME280;33067;49.296;14.470;2022-12-18T07:59:04;98712.65;;;-4.86;37.10
47080;BME280;33067;49.296;14.470;2022-12-18T08:01:29;98712.50;;;-4.96;37.64
47080;BME280;33067;49.296;14.470;2022-12-18T08:03:54;98712.84;;;-5.20;37.55
47080;BME280;33067;49.296;14.470;2022-12-18T08:06:20;98710.83;;;-5.13;38.14
47080;BME280;33067;49.296;14.470;2022-12-18T08:08:45;98712.17;;;-5.17;38.28
47080;BME280;33067;49.296;14.470;2022-12-18T08:11:11;98710.73;;;-4.92;37.68
47080;BME280;33067;49.296;14.470;2022-12-18T08:13:37;98711.94;;;-4.49;37.68
47080;BME280;33067;49.296;14.470;2022-12-18T08:16:04;98716.36;;;-4.43;37.32
47080;BME280;33067;49.296;14.470;2022-12-18T08:18:28;98719.10;;;-4.52;37.37
47080;BME280;33067;49.296;14.470;2022-12-18T08:20:54;98716.82;;;-4.27;37.43
47080;BME280;33067;49.296;14.470;2022-12-18T08:23:19;98712.77;;;-4.52;37.57
47080;BME280;33067;49.296;14.470;2022-12-18T08:25:45;98713.94;;;-4.16;37.20
47080;BME280;33067;49.296;14.470;2022-12-18T08:28:10;98714.93;;;-4.02;37.47
47080;BME280;33067;49.296;14.470;2022-12-18T08:30:36;98710.93;;;-4.39;37.36
47080;BME280;33067;49.296;14.470;2022-12-18T08:33:00;98713.45;;;-4.04;37.21
47080;BME280;33067;49.296;14.470;2022-12-18T08:35:26;98713.41;;;-4.59;37.78
47080;BME280;33067;49.296;14.470;2022-12-18T08:37:52;98712.05;;;-4.10;37.76
47080;BME280;33067;49.296;14.470;2022-12-18T08:40:17;98712.01;;;-4.25;37.67
47080;BME280;33067;49.296;14.470;2022-12-18T08:42:42;98709.63;;;-4.20;37.29
47080;BME280;33067;49.296;14.470;2022-12-18T08:45:09;98708.38;;;-4.28;37.77
47080;BME280;33067;49.296;14.470;2022-12-18T08:47:34;98702.34;;;-4.35;37.83
47080;BME280;33067;49.296;14.470;2022-12-18T08:49:59;98702.10;;;-3.75;37.42
47080;BME280;33067;49.296;14.470;2022-12-18T08:52:25;98699.24;;;-3.89;37.31
47080;BME280;33067;49.296;14.470;2022-12-18T08:54:50;98703.72;;;-3.71;36.95
47080;BME280;33067;49.296;14.470;2022-12-18T08:57:15;98706.60;;;-3.91;36.75
47080;BME280;33067;49.296;14.470;2022-12-18T08:59:41;98716.00;;;-3.65;36.43
47080;BME280;33067;49.296;14.470;2022-12-18T09:02:08;98711.43;;;-3.66;36.82
47080;BME280;33067;49.296;14.470;2022-12-18T09:04:32;98706.32;;;-4.01;37.20
47080;BME280;33067;49.296;14.470;2022-12-18T09:06:58;98708.74;;;-4.65;37.60
47080;BME280;33067;49.296;14.470;2022-12-18T09:09:23;98704.51;;;-4.32;37.51
47080;BME280;33067;49.296;14.470;2022-12-18T09:11:49;98702.04;;;-4.39;37.59
47080;BME280;33067;49.296;14.470;2022-12-18T09:14:14;98706.74;;;-4.64;38.15
47080;BME280;33067;49.296;14.470;2022-12-18T09:16:39;98715.76;;;-5.22;38.99
47080;BME280;33067;49.296;14.470;2022-12-18T09:19:05;98719.59;;;-4.97;39.34
47080;BME280;33067;49.296;14.470;2022-12-18T09:21:32;98715.59;;;-4.32;38.10
47080;BME280;33067;49.296;14.470;2022-12-18T09:23:56;98713.42;;;-6.14;41.08
47080;BME280;33067;49.296;14.470;2022-12-18T09:26:21;98711.28;;;-5.36;40.48
47080;BME280;33067;49.296;14.470;2022-12-18T09:28:47;98710.94;;;-5.60;40.67
47080;BME280;33067;49.296;14.470;2022-12-18T09:31:15;98710.89;;;-5.79;41.02
47080;BME280;33067;49.296;14.470;2022-12-18T09:33:38;98711.49;;;-5.82;41.67
47080;BME280;33067;49.296;14.470;2022-12-18T09:36:04;98710.79;;;-5.72;41.62
47080;BME280;33067;49.296;14.470;2022-12-18T09:38:28;98710.88;;;-5.45;41.15
47080;BME280;33067;49.296;14.470;2022-12-18T09:40:57;98712.78;;;-5.35;40.21
47080;BME280;33067;49.296;14.470;2022-12-18T09:43:23;98707.48;;;-4.93;39.93
47080;BME280;33067;49.296;14.470;2022-12-18T09:45:47;98706.57;;;-4.95;40.23
47080;BME280;33067;49.296;14.470;2022-12-18T09:48:10;98702.85;;;-4.38;39.67
47080;BME280;33067;49.296;14.470;2022-12-18T09:50:38;98706.35;;;-5.10;40.17
47080;BME280;33067;49.296;14.470;2022-12-18T09:53:04;98701.96;;;-5.17;40.06
47080;BME280;33067;49.296;14.470;2022-12-18T09:55:30;98700.34;;;-5.57;40.75
47080;BME280;33067;49.296;14.470;2022-12-18T09:57:53;98700.43;;;-6.04;41.71
47080;BME280;33067;49.296;14.470;2022-12-18T10:00:20;98705.97;;;-5.72;41.60
47080;BME280;33067;49.296;14.470;2022-12-18T10:02:42;98711.55;;;-5.05;40.46
47080;BME280;33067;49.296;14.470;2022-12-18T10:05:11;98710.16;;;-4.36;39.54
47080;BME280;33067;49.296;14.470;2022-12-18T10:07:41;98714.11;;;-5.24;40.53
47080;BME280;33067;49.296;14.470;2022-12-18T10:10:02;98712.18;;;-4.80;39.73
47080;BME280;33067;49.296;14.470;2022-12-18T10:12:27;98717.45;;;-5.03;39.79
47080;BME280;33067;49.296;14.470;2022-12-18T10:14:55;98711.83;;;-4.86;39.79
47080;BME280;33067;49.296;14.470;2022-12-18T10:17:22;98710.98;;;-5.01;40.52
47080;BME280;33067;49.296;14.470;2022-12-18T10:19:43;98707.21;;;-5.50;41.33
47080;BME280;33067;49.296;14.470;2022-12-18T10:22:14;98697.92;;;-5.81;41.59
47080;BME280;33067;49.296;14.470;2022-12-18T10:24:35;98694.84;;;-5.08;40.66
47080;BME280;33067;49.296;14.470;2022-12-18T10:27:04;98699.16;;;-5.48;40.61
47080;BME280;33067;49.296;14.470;2022-12-18T10:29:25;98702.64;;;-5.12;40.63
47080;BME280;33067;49.296;14.470;2022-12-18T10:31:48;98701.91;;;-5.27;41.25
47080;BME280;33067;49.296;14.470;2022-12-18T10:34:13;98703.89;;;-5.27;41.40
47080;BME280;33067;49.296;14.470;2022-12-18T10:36:39;98696.69;;;-5.45;41.64
47080;BME280;33067;49.296;14.470;2022-12-18T10:39:16;98691.62;;;-5.43;41.95
47080;BME280;33067;49.296;14.470;2022-12-18T10:41:31;98685.94;;;-5.41;41.81
47080;BME280;33067;49.296;14.470;2022-12-18T10:46:22;98667.64;;;-5.36;42.02
47080;BME280;33067;49.296;14.470;2022-12-18T10:48:53;98665.74;;;-5.01;41.52
47080;BME280;33067;49.296;14.470;2022-12-18T10:51:19;98661.88;;;-4.68;40.73
47080;BME280;33067;49.296;14.470;2022-12-18T10:53:40;98666.03;;;-4.61;40.79
47080;BME280;33067;49.296;14.470;2022-12-18T10:56:05;98667.25;;;-4.79;41.68
47080;BME280;33067;49.296;14.470;2022-12-18T10:58:31;98662.98;;;-4.57;41.83
47080;BME280;33067;49.296;14.470;2022-12-18T11:01:05;98658.43;;;-4.97;41.91
47080;BME280;33067;49.296;14.470;2022-12-18T11:03:30;98658.45;;;-4.69;42.02
47080;BME280;33067;49.296;14.470;2022-12-18T11:05:46;98657.21;;;-4.63;41.87
47080;BME280;33067;49.296;14.470;2022-12-18T11:08:19;98646.17;;;-4.15;41.09
47080;BME280;33067;49.296;14.470;2022-12-18T11:10:37;98637.98;;;-3.87;40.61
47080;BME280;33067;49.296;14.470;2022-12-18T11:13:15;98636.79;;;-4.22;41.18
47080;BME280;33067;49.296;14.470;2022-12-18T11:15:29;98633.86;;;-4.25;41.35
47080;BME280;33067;49.296;14.470;2022-12-18T11:17:52;98633.16;;;-4.16;40.95
47080;BME280;33067;49.296;14.470;2022-12-18T11:20:27;98634.86;;;-4.42;41.35
47080;BME280;33067;49.296;14.470;2022-12-18T11:22:42;98632.02;;;-3.99;40.94
47080;BME280;33067;49.296;14.470;2022-12-18T11:25:18;98630.13;;;-3.54;40.67
47080;BME280;33067;49.296;14.470;2022-12-18T11:27:33;98628.68;;;-3.34;40.37
47080;BME280;33067;49.296;14.470;2022-12-18T11:30:08;98620.03;;;-2.73;39.50
47080;BME280;33067;49.296;14.470;2022-12-18T11:32:30;98612.90;;;-2.64;39.04
47080;BME280;33067;49.296;14.470;2022-12-18T11:34:51;98612.85;;;-2.64;39.02
47080;BME280;33067;49.296;14.470;2022-12-18T11:37:15;98622.31;;;-2.45;39.03
47080;BME280;33067;49.296;14.470;2022-12-18T11:39:41;98621.88;;;-2.66;38.67
47080;BME280;33067;49.296;14.470;2022-12-18T11:42:10;98619.93;;;-2.56;38.55
47080;BME280;33067;49.296;14.470;2022-12-18T11:44:37;98623.11;;;-2.25;37.96
47080;BME280;33067;49.296;14.470;2022-12-18T11:47:00;98628.38;;;-2.43;37.90
47080;BME280;33067;49.296;14.470;2022-12-18T11:49:25;98630.30;;;-2.63;38.04
47080;BME280;33067;49.296;14.470;2022-12-18T11:51:51;98630.66;;;-2.52;37.85
47080;BME280;33067;49.296;14.470;2022-12-18T11:54:14;98632.13;;;-2.57;37.51
47080;BME280;33067;49.296;14.470;2022-12-18T11:56:42;98625.51;;;-2.55;38.00
47080;BME280;33067;49.296;14.470;2022-12-18T11:59:13;98624.07;;;-2.33;37.59
47080;BME280;33067;49.296;14.470;2022-12-18T12:01:39;98622.16;;;-2.54;37.88
47080;BME280;33067;49.296;14.470;2022-12-18T12:04:08;98629.07;;;-2.63;38.19
47080;BME280;33067;49.296;14.470;2022-12-18T12:06:21;98626.18;;;-2.57;37.85
47080;BME280;33067;49.296;14.470;2022-12-18T12:08:57;98627.71;;;-2.81;38.03
47080;BME280;33067;49.296;14.470;2022-12-18T12:11:16;98625.40;;;-2.80;38.41
47080;BME280;33067;49.296;14.470;2022-12-18T12:13:45;98622.34;;;-3.17;39.20
47080;BME280;33067;49.296;14.470;2022-12-18T12:16:11;98620.28;;;-4.76;40.07
47080;BME280;33067;49.296;14.470;2022-12-18T12:18:33;98612.25;;;-3.60;39.23
47080;BME280;33067;49.296;14.470;2022-12-18T12:20:59;98609.69;;;-3.28;39.41
47080;BME280;33067;49.296;14.470;2022-12-18T12:23:26;98614.23;;;-3.46;39.90
47080;BME280;33067;49.296;14.470;2022-12-18T12:25:48;98610.42;;;-3.11;39.46
47080;BME280;33067;49.296;14.470;2022-12-18T12:28:18;98613.61;;;-3.53;40.13
47080;BME280;33067;49.296;14.470;2022-12-18T12:30:42;98622.61;;;-3.47;39.93
47080;BME280;33067;49.296;14.470;2022-12-18T12:33:10;98623.21;;;-3.14;39.70
47080;BME280;33067;49.296;14.470;2022-12-18T12:35:34;98622.23;;;-3.08;39.73
47080;BME280;33067;49.296;14.470;2022-12-18T12:38:00;98627.44;;;-3.45;40.26
47080;BME280;33067;49.296;14.470;2022-12-18T12:40:18;98635.66;;;-3.40;40.27
47080;BME280;33067;49.296;14.470;2022-12-18T12:42:44;98632.11;;;-3.69;40.26
47080;BME280;33067;49.296;14.470;2022-12-18T12:45:14;98631.90;;;-3.21;39.78